Time;durP1;ratioP1;P1;durP2;ratioP2;P2;SDS_P1;SDS_P2;PMS_P1;PMS_P2;Temp;Humidity;BMP_temperature;BMP_pressure;BME280_temperature;BME280_humidity;BME280_pressure;Samples;Min_cycle;Max_cycle;Signal;HPM_P1;HPM_P2
2022/12/28 00:01:21;;;;;;;13.02;6.30;;;5.30;99.90;;;;;;5018226;28;20097;-29
2022/12/28 00:03:47;;;;;;;10.50;5.60;;;5.20;99.90;;;;;;5001940;28;20088;-29
2022/12/28 00:06:14;;;;;;;11.50;5.82;;;5.30;99.90;;;;;;5017929;28;20045;-29
2022/12/28 00:08:40;;;;;;;18.92;5.93;;;5.20;99.90;;;;;;5035508;28;20060;-29
2022/12/28 00:11:07;;;;;;;14.90;5.60;;;5.20;99.90;;;;;;5017720;28;20546;-29
2022/12/28 00:13:34;;;;;;;13.48;5.55;;;5.20;99.90;;;;;;5035434;28;20045;-29
2022/12/28 00:16:16;;;;;;;15.15;6.32;;;5.20;99.90;;;;;;5035670;28;20124;-28
2022/12/28 00:18:42;;;;;;;10.52;5.63;;;5.20;99.90;;;;;;5035365;28;20546;-29
2022/12/28 00:21:07;;;;;;;13.50;6.72;;;5.30;99.90;;;;;;5035246;28;20049;-29
2022/12/28 00:23:33;;;;;;;17.42;6.80;;;5.30;99.90;;;;;;5035511;28;20172;-29
2022/12/28 00:26:07;;;;;;;14.85;6.65;;;5.20;99.90;;;;;;5035441;28;20124;-29
2022/12/28 00:28:33;;;;;;;13.68;6.43;;;5.30;99.90;;;;;;5017547;28;20045;-29
2022/12/28 00:30:58;;;;;;;16.83;7.25;;;5.30;99.90;;;;;;5035029;28;20099;-29
2022/12/28 00:33:24;;;;;;;19.90;7.88;;;5.30;99.90;;;;;;5035313;28;20447;-29
2022/12/28 00:35:54;;;;;;;14.80;6.85;;;5.20;99.90;;;;;;5001290;28;20041;-29
2022/12/28 00:38:20;;;;;;;15.02;8.40;;;5.20;99.90;;;;;;5034980;28;20041;-29
2022/12/28 00:40:46;;;;;;;17.35;8.38;;;5.30;99.90;;;;;;5034840;28;20132;-28
2022/12/28 00:43:12;;;;;;;16.13;7.95;;;5.30;99.90;;;;;;5035662;28;20041;-29
2022/12/28 00:45:37;;;;;;;12.55;7.97;;;5.30;99.90;;;;;;5034790;28;20484;-28
2022/12/28 00:48:04;;;;;;;13.80;7.15;;;5.40;99.90;;;;;;5034840;28;20050;-28
2022/12/28 00:50:29;;;;;;;14.55;8.27;;;5.40;99.90;;;;;;5034657;28;20057;-28
2022/12/28 00:52:55;;;;;;;15.93;8.02;;;5.40;99.90;;;;;;5034261;28;20050;-28
2022/12/28 00:55:24;;;;;;;17.08;9.02;;;5.40;99.90;;;;;;5034589;28;20048;-28
2022/12/28 00:57:50;;;;;;;14.55;8.40;;;5.40;99.90;;;;;;5034894;28;20049;-28
2022/12/28 01:00:16;;;;;;;15.73;7.68;;;5.40;99.90;;;;;;5035751;28;20472;-29
2022/12/28 01:02:41;;;;;;;12.68;7.88;;;5.50;99.90;;;;;;5034528;28;20075;-28
2022/12/28 01:05:07;;;;;;;17.27;7.95;;;5.40;99.90;;;;;;5016861;28;20041;-28
2022/12/28 01:07:33;;;;;;;14.80;8.50;;;5.50;99.90;;;;;;5034379;28;20081;-28
2022/12/28 01:09:59;;;;;;;18.77;8.60;;;5.50;99.90;;;;;;5034805;28;20088;-29
2022/12/28 01:12:24;;;;;;;11.98;8.50;;;5.50;99.90;;;;;;5034572;28;20502;-28
2022/12/28 01:14:50;;;;;;;11.98;7.22;;;5.50;99.90;;;;;;5034816;28;20050;-29
2022/12/28 01:17:16;;;;;;;12.90;8.10;;;5.70;99.90;;;;;;5016588;28;20052;-29
2022/12/28 01:19:41;;;;;;;15.07;7.20;;;5.60;99.90;;;;;;5034498;28;20070;-29
2022/12/28 01:22:09;;;;;;;11.30;8.10;;;5.60;99.90;;;;;;5034467;28;20045;-29
2022/12/28 01:24:34;;;;;;;11.07;6.55;;;5.70;99.90;;;;;;5034202;28;20064;-29
2022/12/28 01:27:00;;;;;;;13.60;7.70;;;5.70;99.90;;;;;;5034128;28;20484;-29
2022/12/28 01:29:26;;;;;;;15.88;7.38;;;5.70;99.90;;;;;;5016367;28;20128;-29
2022/12/28 01:31:52;;;;;;;13.00;7.57;;;5.80;99.90;;;;;;5034525;28;20535;-28
2022/12/28 01:34:17;;;;;;;15.05;8.20;;;5.70;99.90;;;;;;5033940;28;20048;-29
2022/12/28 01:36:43;;;;;;;15.77;7.60;;;5.60;99.90;;;;;;5033626;28;20183;-29
2022/12/28 01:39:09;;;;;;;13.27;7.22;;;5.80;99.90;;;;;;5034159;28;20049;-28
2022/12/28 01:41:38;;;;;;;12.82;7.47;;;5.80;99.90;;;;;;5017056;28;20046;-28
2022/12/28 01:44:05;;;;;;;13.10;7.75;;;5.80;99.90;;;;;;5034649;28;20131;-28
2022/12/28 01:46:37;;;;;;;13.48;7.55;;;5.80;99.90;;;;;;5033813;28;20053;-28
2022/12/28 01:49:07;;;;;;;17.42;8.02;;;5.80;99.90;;;;;;5033806;28;20076;-29
2022/12/28 01:51:52;;;;;;;15.40;8.45;;;5.80;99.90;;;;;;5034244;28;20041;-29
2022/12/28 01:54:23;;;;;;;14.85;7.47;;;5.80;99.90;;;;;;5016482;28;20139;-30
2022/12/28 01:56:49;;;;;;;16.98;8.77;;;5.90;99.90;;;;;;5016194;28;20515;-30
2022/12/28 01:59:18;;;;;;;12.07;8.65;;;5.80;99.90;;;;;;5007024;28;20396;-30
2022/12/28 02:01:43;;;;;;;13.10;9.63;;;5.80;99.90;;;;;;5032681;28;20124;-30
2022/12/28 02:04:10;;;;;;;19.95;9.13;;;5.70;99.90;;;;;;5032085;28;20492;-29
2022/12/28 02:06:35;;;;;;;19.38;11.32;;;5.70;99.90;;;;;;5015732;28;20530;-30
2022/12/28 02:09:18;;;;;;;19.10;11.70;;;5.90;99.90;;;;;;5033526;28;20041;-30
2022/12/28 02:11:44;;;;;;;15.95;11.65;;;5.80;99.90;;;;;;5033191;28;20464;-30
2022/12/28 02:14:12;;;;;;;15.75;10.98;;;5.80;99.90;;;;;;5034332;28;20103;-30
2022/12/28 02:16:38;;;;;;;22.27;12.10;;;5.70;99.90;;;;;;5033507;28;20103;-30
2022/12/28 02:19:05;;;;;;;26.92;13.57;;;5.80;99.90;;;;;;5032527;28;20045;-30
2022/12/28 02:21:49;;;;;;;25.88;12.23;;;5.70;99.90;;;;;;5033449;28;20466;-30
2022/12/28 02:24:33;;;;;;;23.15;14.23;;;5.70;99.90;;;;;;5034032;28;20403;-31
2022/12/28 02:27:11;;;;;;;20.80;13.13;;;5.70;99.90;;;;;;5033970;28;20534;-30
2022/12/28 02:29:40;;;;;;;24.65;15.48;;;5.70;99.90;;;;;;5033349;28;20041;-29
2022/12/28 02:32:28;;;;;;;24.95;15.07;;;5.70;99.90;;;;;;5033854;28;20140;-30
2022/12/28 02:35:07;;;;;;;18.83;14.25;;;5.80;99.90;;;;;;5033650;28;20107;-30
2022/12/28 02:38:01;;;;;;;23.83;15.93;;;5.70;99.90;;;;;;5032164;28;20084;-30
2022/12/28 02:40:47;;;;;;;21.95;15.13;;;5.60;99.90;;;;;;5033301;28;20556;-30
2022/12/28 02:43:13;;;;;;;24.77;14.20;;;5.80;99.90;;;;;;5033172;28;20049;-30
2022/12/28 02:51:44;;;;;;;21.63;14.55;;;5.80;99.90;;;;;;5033173;28;20068;-30
2022/12/28 02:57:18;;;;;;;26.58;14.85;;;5.80;99.90;;;;;;5033093;28;20050;-30
2022/12/28 03:00:01;;;;;;;25.63;14.88;;;5.70;99.90;;;;;;5031926;28;20095;-31
2022/12/28 03:02:36;;;;;;;21.03;16.77;;;5.80;99.90;;;;;;5033175;28;20048;-30
2022/12/28 03:05:11;;;;;;;20.75;15.02;;;5.80;99.90;;;;;;5033181;28;20056;-30
2022/12/28 03:08:18;;;;;;;24.30;14.27;;;5.90;99.90;;;;;;5033575;28;20103;-30
2022/12/28 03:11:09;;;;;;;17.02;13.02;;;5.90;99.90;;;;;;5033028;28;20099;-30
2022/12/28 03:13:55;;;;;;;15.43;11.23;;;5.90;99.90;;;;;;5033316;28;20050;-30
2022/12/28 03:16:32;;;;;;;16.98;13.55;;;5.90;99.90;;;;;;5033013;28;20045;-30
2022/12/28 03:33:02;;;;;;;20.27;13.90;;;6.20;99.90;;;;;;5035284;28;20487;-30
2022/12/28 03:35:44;;;;;;;15.30;11.77;;;6.10;99.90;;;;;;5036195;28;20053;-30
2022/12/28 03:38:25;;;;;;;16.77;13.68;;;6.20;99.90;;;;;;5036241;28;20132;-31
2022/12/28 03:40:59;;;;;;;18.13;11.90;;;6.20;99.90;;;;;;5035707;28;20537;-30
2022/12/28 03:43:41;;;;;;;17.17;12.27;;;6.20;99.90;;;;;;5036618;28;20427;-30
2022/12/28 03:46:38;;;;;;;21.80;15.32;;;6.40;99.90;;;;;;5036306;28;20053;-30
2022/12/28 03:49:04;;;;;;;14.90;11.85;;;6.30;99.90;;;;;;5036254;28;20124;-30
2022/12/28 03:51:31;;;;;;;19.60;12.55;;;6.30;99.90;;;;;;5035237;28;20454;-30
2022/12/28 03:53:57;;;;;;;16.40;12.02;;;6.40;99.90;;;;;;5035854;28;20057;-30
2022/12/28 03:56:26;;;;;;;17.23;14.52;;;6.30;99.90;;;;;;5034706;28;20053;-31
2022/12/28 03:58:52;;;;;;;14.48;11.90;;;6.30;99.90;;;;;;5034475;28;20496;-31
2022/12/28 04:01:18;;;;;;;15.45;12.07;;;6.40;99.90;;;;;;5034523;28;20052;-30
2022/12/28 04:03:44;;;;;;;14.23;11.23;;;6.20;99.90;;;;;;5035678;28;20041;-31
2022/12/28 04:06:15;;;;;;;14.43;12.75;;;6.40;99.90;;;;;;5035687;28;20128;-31
2022/12/28 04:08:42;;;;;;;16.90;13.45;;;6.50;99.90;;;;;;5034105;28;20440;-31
2022/12/28 04:11:08;;;;;;;13.35;11.88;;;6.50;99.90;;;;;;5034250;28;20044;-31
2022/12/28 04:13:34;;;;;;;17.65;15.48;;;6.30;99.90;;;;;;5034784;28;20060;-30
2022/12/28 04:16:06;;;;;;;14.68;10.75;;;6.50;99.90;;;;;;5035371;28;20053;-32
2022/12/28 04:18:33;;;;;;;19.23;14.18;;;6.50;99.90;;;;;;5018256;28;20053;-32
2022/12/28 04:20:59;;;;;;;15.00;13.27;;;6.30;99.90;;;;;;5035286;28;20099;-32
2022/12/28 04:23:25;;;;;;;14.82;11.45;;;6.40;99.90;;;;;;5034990;28;20376;-31
2022/12/28 04:26:10;;;;;;;14.73;11.98;;;6.40;99.90;;;;;;5035248;28;20049;-31
2022/12/28 04:28:36;;;;;;;19.55;13.98;;;6.40;99.90;;;;;;5035325;28;20178;-32
2022/12/28 04:31:03;;;;;;;18.02;13.77;;;6.40;99.90;;;;;;5035074;28;20063;-31
2022/12/28 04:33:32;;;;;;;19.48;15.07;;;6.60;99.90;;;;;;5033916;28;20072;-32
2022/12/28 04:36:14;;;;;;;15.38;13.77;;;6.40;99.90;;;;;;5035028;28;20052;-31
2022/12/28 04:38:40;;;;;;;18.40;14.98;;;6.60;99.90;;;;;;5035021;28;20056;-32
2022/12/28 04:41:07;;;;;;;19.40;14.07;;;6.40;99.90;;;;;;5034507;28;20057;-33
2022/12/28 04:43:33;;;;;;;18.30;14.00;;;6.40;99.90;;;;;;5034910;28;20049;-32
2022/12/28 04:46:03;;;;;;;18.45;16.08;;;6.40;99.90;;;;;;5033634;28;20128;-33
2022/12/28 04:48:28;;;;;;;19.63;14.70;;;6.60;99.90;;;;;;5033793;28;20558;-33
2022/12/28 04:50:55;;;;;;;20.48;14.75;;;6.50;99.90;;;;;;5034665;28;20081;-33
2022/12/28 04:53:21;;;;;;;19.08;14.85;;;6.50;99.90;;;;;;5034699;28;20128;-33
2022/12/28 04:55:47;;;;;;;19.67;15.15;;;6.50;99.90;;;;;;5017261;28;20136;-34
2022/12/28 04:58:13;;;;;;;20.67;16.75;;;6.70;99.90;;;;;;5033145;28;20049;-34
2022/12/28 05:00:39;;;;;;;21.05;18.25;;;6.70;99.90;;;;;;5017169;28;20088;-32
2022/12/28 05:03:05;;;;;;;22.38;16.67;;;6.70;99.90;;;;;;5016865;28;20132;-34
2022/12/28 05:05:30;;;;;;;21.48;17.70;;;6.90;99.90;;;;;;5034552;28;20049;-32
2022/12/28 05:08:00;;;;;;;23.42;16.65;;;6.90;99.90;;;;;;5034453;28;20376;-33
2022/12/28 05:10:26;;;;;;;22.50;18.27;;;7.00;99.90;;;;;;5034595;28;20060;-32
2022/12/28 05:12:53;;;;;;;24.08;19.90;;;6.70;99.90;;;;;;5016626;28;20048;-33
2022/12/28 05:15:19;;;;;;;23.67;17.65;;;6.80;99.90;;;;;;4984452;28;20045;-33
2022/12/28 05:17:45;;;;;;;24.35;21.95;;;6.90;99.90;;;;;;5034272;28;20139;-32
2022/12/28 05:20:11;;;;;;;28.63;20.17;;;6.80;99.90;;;;;;5016577;28;20045;-32
2022/12/28 05:22:36;;;;;;;22.05;17.88;;;6.90;99.90;;;;;;5034185;28;20403;-31
2022/12/28 05:25:02;;;;;;;27.48;22.35;;;6.90;99.90;;;;;;5016630;28;20045;-31
2022/12/28 05:27:28;;;;;;;26.77;21.75;;;7.00;99.90;;;;;;5001099;28;20049;-31
2022/12/28 05:29:54;;;;;;;23.08;17.50;;;7.20;99.90;;;;;;5034284;28;20131;-31
2022/12/28 05:32:19;;;;;;;26.95;24.13;;;7.10;99.90;;;;;;5000220;28;20480;-31
2022/12/28 05:34:45;;;;;;;31.20;24.75;;;7.00;99.90;;;;;;5017230;28;20045;-32
2022/12/28 05:37:11;;;;;;;31.17;24.00;;;7.20;99.90;;;;;;5016367;28;20454;-32
2022/12/28 05:39:36;;;;;;;25.05;19.92;;;7.40;99.90;;;;;;5016812;28;20049;-30
2022/12/28 05:42:02;;;;;;;26.95;21.85;;;7.20;99.90;;;;;;5016286;28;20095;-31
2022/12/28 05:44:29;;;;;;;27.33;23.83;;;7.20;99.90;;;;;;5033864;28;20056;-31
2022/12/28 05:46:55;;;;;;;27.45;22.80;;;7.60;99.90;;;;;;5033478;28;20412;-30
2022/12/28 05:49:20;;;;;;;26.15;21.85;;;7.30;99.90;;;;;;5034264;28;20108;-31
2022/12/28 05:51:50;;;;;;;25.85;23.05;;;7.40;99.90;;;;;;5034261;28;20479;-32
2022/12/28 05:54:16;;;;;;;25.67;21.08;;;7.40;99.90;;;;;;5033704;28;20100;-31
2022/12/28 05:56:42;;;;;;;21.38;19.25;;;7.60;99.90;;;;;;5016982;28;20042;-31
2022/12/28 05:59:08;;;;;;;24.83;20.92;;;7.80;99.90;;;;;;5033673;28;20057;-31
2022/12/28 06:01:39;;;;;;;20.90;17.33;;;7.70;99.90;;;;;;5016609;28;20418;-31
2022/12/28 06:04:15;;;;;;;21.75;18.17;;;7.70;99.90;;;;;;5033659;28;20507;-31
2022/12/28 06:06:41;;;;;;;27.52;20.02;;;7.80;99.90;;;;;;5034266;28;20053;-31
2022/12/28 06:09:06;;;;;;;29.35;21.95;;;7.70;99.90;;;;;;5033810;28;20045;-31
2022/12/28 06:11:32;;;;;;;23.02;19.48;;;7.70;99.90;;;;;;5033519;28;20053;-31
2022/12/28 06:13:59;;;;;;;22.33;19.20;;;7.70;99.90;;;;;;5033514;28;20132;-31
2022/12/28 06:16:28;;;;;;;18.73;16.83;;;7.80;99.90;;;;;;4999837;28;20128;-30
2022/12/28 06:18:53;;;;;;;19.08;17.05;;;7.80;99.90;;;;;;5033755;28;20067;-31
2022/12/28 06:21:28;;;;;;;18.90;16.83;;;7.90;99.90;;;;;;4999474;28;20483;-31
2022/12/28 06:23:58;;;;;;;16.42;14.07;;;8.00;99.90;;;;;;5016966;28;20441;-31
2022/12/28 06:26:25;;;;;;;16.60;14.25;;;8.00;99.90;;;;;;5033445;28;20182;-31
2022/12/28 06:28:51;;;;;;;18.23;16.33;;;7.90;99.90;;;;;;5033664;28;20124;-31
2022/12/28 06:31:23;;;;;;;16.08;14.38;;;7.90;99.90;;;;;;5033793;28;20128;-31
2022/12/28 06:33:56;;;;;;;16.25;13.32;;;7.90;99.90;;;;;;5016831;28;20049;-30
2022/12/28 06:36:36;;;;;;;15.27;13.50;;;7.90;99.90;;;;;;5033374;28;20146;-30
2022/12/28 06:39:06;;;;;;;17.63;14.85;;;7.90;99.90;;;;;;5033884;28;20038;-30
2022/12/28 06:41:32;;;;;;;17.27;15.50;;;8.10;99.90;;;;;;5033245;28;20038;-30
2022/12/28 06:43:58;;;;;;;17.05;15.25;;;8.00;99.90;;;;;;5033222;28;20085;-30
2022/12/28 06:46:27;;;;;;;17.98;14.38;;;8.00;99.90;;;;;;5033212;28;20139;-30
2022/12/28 06:48:53;;;;;;;15.20;12.85;;;8.00;99.90;;;;;;5016341;28;20045;-30
2022/12/28 06:51:24;;;;;;;18.67;16.58;;;8.00;99.90;;;;;;5033838;28;20129;-30
2022/12/28 06:53:51;;;;;;;23.23;17.25;;;8.00;99.90;;;;;;5019256;28;20057;-30
2022/12/28 06:56:19;;;;;;;19.77;16.05;;;8.10;99.90;;;;;;5019452;28;20047;-30
2022/12/28 06:58:47;;;;;;;21.02;18.13;;;8.10;99.90;;;;;;5036727;28;20069;-30
2022/12/28 07:01:13;;;;;;;21.52;17.83;;;7.90;99.90;;;;;;5019163;28;20380;-30
2022/12/28 07:03:39;;;;;;;20.48;17.83;;;8.10;99.90;;;;;;5019935;28;20057;-29
2022/12/28 07:06:05;;;;;;;24.38;18.67;;;8.00;99.90;;;;;;5036788;28;20395;-29
2022/12/28 07:08:31;;;;;;;22.38;17.30;;;8.10;99.90;;;;;;5036695;28;20107;-29
2022/12/28 07:11:05;;;;;;;21.17;17.20;;;8.10;99.90;;;;;;5036571;28;20076;-30
2022/12/28 07:13:31;;;;;;;19.17;15.35;;;7.90;99.90;;;;;;5036679;28;20049;-30
2022/12/28 07:16:01;;;;;;;22.02;16.42;;;8.00;99.90;;;;;;5036572;28;20049;-30
2022/12/28 07:18:27;;;;;;;20.02;15.73;;;7.90;99.90;;;;;;5036536;28;20052;-30
2022/12/28 07:21:08;;;;;;;21.52;17.55;;;8.00;99.90;;;;;;5036492;28;20042;-30
2022/12/28 07:23:34;;;;;;;18.65;16.75;;;8.10;99.90;;;;;;5019002;28;20479;-30
2022/12/28 07:26:09;;;;;;;23.70;19.33;;;8.00;99.90;;;;;;5036923;28;20049;-30
2022/12/28 07:28:45;;;;;;;27.17;18.60;;;8.10;99.90;;;;;;5019778;28;20128;-31
2022/12/28 07:31:14;;;;;;;26.48;19.67;;;8.00;99.90;;;;;;5019409;28;20060;-30
2022/12/28 07:33:40;;;;;;;18.30;16.20;;;8.00;99.90;;;;;;5036226;28;20056;-30
2022/12/28 07:36:08;;;;;;;23.50;18.88;;;8.10;99.90;;;;;;5036244;28;20061;-30
2022/12/28 07:38:34;;;;;;;20.67;15.40;;;8.30;99.90;;;;;;5036172;28;20060;-30
2022/12/28 07:41:22;;;;;;;21.27;17.08;;;8.20;99.90;;;;;;5035743;28;20502;-30
2022/12/28 07:43:48;;;;;;;22.55;17.80;;;8.30;99.90;;;;;;5036635;28;20080;-31
2022/12/28 07:46:22;;;;;;;24.95;18.90;;;8.30;99.90;;;;;;5018627;28;20063;-29
2022/12/28 07:48:49;;;;;;;21.10;17.75;;;8.30;99.90;;;;;;5036067;28;20045;-30
2022/12/28 07:51:17;;;;;;;24.77;16.88;;;8.40;99.90;;;;;;5035833;28;20072;-30
2022/12/28 07:53:45;;;;;;;25.90;17.23;;;8.40;99.90;;;;;;5035870;28;20076;-31
2022/12/28 07:56:11;;;;;;;22.52;14.88;;;8.30;99.90;;;;;;5001816;28;20049;-31
2022/12/28 07:58:37;;;;;;;26.13;17.80;;;8.40;99.90;;;;;;5035654;28;20045;-31
2022/12/28 08:01:04;;;;;;;22.95;15.43;;;8.30;99.90;;;;;;5036602;28;20099;-31
2022/12/28 08:03:32;;;;;;;18.98;14.20;;;8.40;99.90;;;;;;5034826;28;20053;-31
2022/12/28 08:06:02;;;;;;;18.70;13.75;;;;;;;;;;5035588;28;20053;-30
2022/12/28 08:08:28;;;;;;;20.70;14.18;;;8.40;99.90;;;;;;5018101;28;20377;-29
2022/12/28 08:10:53;;;;;;;18.20;13.10;;;8.50;99.90;;;;;;5018434;28;20052;-28
2022/12/28 08:13:19;;;;;;;26.23;15.07;;;8.40;99.90;;;;;;5036312;28;20460;-30
2022/12/28 08:15:53;;;;;;;20.05;12.25;;;8.40;99.90;;;;;;5017952;28;20049;-29
2022/12/28 08:18:19;;;;;;;20.00;16.30;;;8.40;99.90;;;;;;5035498;28;20057;-29
2022/12/28 08:20:44;;;;;;;19.25;13.57;;;8.50;99.90;;;;;;5035629;28;20041;-29
2022/12/28 08:23:10;;;;;;;22.58;16.27;;;8.50;99.90;;;;;;5001110;28;20073;-29
2022/12/28 08:25:36;;;;;;;28.05;18.48;;;8.20;99.90;;;;;;5001522;28;20049;-30
2022/12/28 08:28:01;;;;;;;22.58;15.90;;;8.20;99.90;;;;;;5018630;28;20127;-29
2022/12/28 08:30:27;;;;;;;27.42;17.08;;;8.30;99.90;;;;;;5035312;28;20037;-30
2022/12/28 08:32:53;;;;;;;24.13;16.10;;;8.20;99.90;;;;;;5018476;28;20419;-31
2022/12/28 08:35:18;;;;;;;25.50;18.65;;;8.30;99.90;;;;;;5017395;28;20045;-30
2022/12/28 08:37:44;;;;;;;26.17;19.17;;;8.50;99.90;;;;;;5035079;28;20137;-30
2022/12/28 08:40:10;;;;;;;23.35;16.98;;;8.40;99.90;;;;;;5035510;28;20056;-30
2022/12/28 08:42:36;;;;;;;19.38;15.82;;;8.40;99.90;;;;;;5001612;28;20060;-29
2022/12/28 08:45:02;;;;;;;24.15;16.23;;;8.40;99.90;;;;;;5034565;28;20053;-29
2022/12/28 08:47:27;;;;;;;20.42;17.40;;;8.50;99.90;;;;;;5034779;28;20088;-30
2022/12/28 08:49:53;;;;;;;24.08;17.25;;;8.40;99.90;;;;;;5017342;28;20049;-29
2022/12/28 08:52:19;;;;;;;24.50;16.80;;;8.40;99.90;;;;;;5035063;28;20042;-29
2022/12/28 08:54:45;;;;;;;23.67;14.70;;;8.20;99.90;;;;;;5017218;28;20566;-29
2022/12/28 08:57:11;;;;;;;22.52;14.43;;;8.40;99.90;;;;;;5034590;28;20164;-30
2022/12/28 08:59:36;;;;;;;19.13;14.48;;;8.40;99.90;;;;;;5008128;28;20100;-30
2022/12/28 09:02:02;;;;;;;23.60;15.20;;;8.20;99.90;;;;;;5016840;28;20088;-30
2022/12/28 09:04:28;;;;;;;17.58;12.75;;;8.40;99.90;;;;;;5033452;28;20050;-30
2022/12/28 09:06:53;;;;;;;19.40;13.35;;;8.20;99.90;;;;;;5035039;28;20042;-30
2022/12/28 09:09:20;;;;;;;16.05;12.70;;;8.20;99.90;;;;;;5034512;28;20053;-30
2022/12/28 09:11:46;;;;;;;12.43;10.38;;;8.20;99.90;;;;;;5034388;28;20041;-30
2022/12/28 09:14:13;;;;;;;13.00;9.90;;;8.40;99.90;;;;;;5034583;28;20049;-29
2022/12/28 09:16:39;;;;;;;12.00;9.48;;;8.40;99.90;;;;;;5034001;28;20384;-30
2022/12/28 09:19:07;;;;;;;11.73;8.95;;;8.30;99.90;;;;;;5033293;28;20060;-29
2022/12/28 09:21:35;;;;;;;9.95;7.53;;;8.50;99.90;;;;;;5034249;28;20041;-29
2022/12/28 09:24:02;;;;;;;9.23;7.82;;;8.50;99.90;;;;;;5033505;28;20056;-29
2022/12/28 09:26:31;;;;;;;8.77;7.38;;;8.40;99.90;;;;;;5034179;28;20050;-29
2022/12/28 09:28:59;;;;;;;10.88;7.88;;;8.30;99.90;;;;;;5034118;28;20088;-30
2022/12/28 09:31:27;;;;;;;9.65;7.60;;;8.40;99.90;;;;;;5034287;28;20446;-30
2022/12/28 09:34:00;;;;;;;11.23;7.10;;;8.60;99.90;;;;;;5033070;28;20049;-29
2022/12/28 09:36:31;;;;;;;11.77;8.57;;;8.60;99.90;;;;;;5018434;28;20096;-30
2022/12/28 09:38:58;;;;;;;11.25;8.65;;;8.50;99.90;;;;;;5034811;28;20125;-30
2022/12/28 09:41:44;;;;;;;13.88;10.10;;;8.40;99.90;;;;;;5033948;28;20052;-30
2022/12/28 09:44:16;;;;;;;11.10;9.93;;;8.40;99.90;;;;;;5034452;28;20050;-30
2022/12/28 09:47:21;;;;;;;12.35;9.75;;;8.40;99.90;;;;;;5033882;28;20400;-29
2022/12/28 09:50:05;;;;;;;10.82;8.55;;;8.60;99.90;;;;;;5033691;28;20561;-30
2022/12/28 09:52:51;;;;;;;11.85;8.43;;;8.50;99.90;;;;;;5015879;28;20045;-30
2022/12/28 09:55:18;;;;;;;12.38;9.52;;;8.60;99.90;;;;;;5034595;28;20072;-29
2022/12/28 09:57:51;;;;;;;10.07;7.68;;;8.50;99.90;;;;;;5033645;28;20045;-29
2022/12/28 10:00:22;;;;;;;8.98;6.40;;;8.50;99.90;;;;;;5033851;28;20521;-30
2022/12/28 10:02:59;;;;;;;6.93;5.88;;;8.50;99.90;;;;;;5016170;28;20053;-30
2022/12/28 10:05:26;;;;;;;7.65;6.03;;;8.60;99.90;;;;;;5034470;28;20447;-30
2022/12/28 10:08:02;;;;;;;10.50;7.18;;;8.60;99.90;;;;;;5016395;28;20053;-30
2022/12/28 10:10:28;;;;;;;7.80;6.13;;;8.70;99.90;;;;;;5033529;28;20042;-30
2022/12/28 10:12:54;;;;;;;7.68;5.47;;;8.70;99.90;;;;;;5000714;28;20049;-31
2022/12/28 10:15:26;;;;;;;7.10;5.75;;;8.50;99.90;;;;;;5034315;28;20115;-29
2022/12/28 10:17:51;;;;;;;7.15;5.22;;;8.60;99.90;;;;;;5033589;28;20089;-30
2022/12/28 10:20:20;;;;;;;5.95;4.80;;;8.60;99.90;;;;;;5015856;28;20089;-30
2022/12/28 10:22:56;;;;;;;5.93;4.88;;;8.50;99.90;;;;;;5033410;28;20046;-28
2022/12/28 10:25:25;;;;;;;7.15;5.97;;;8.50;99.90;;;;;;5033363;28;20053;-29
2022/12/28 10:27:52;;;;;;;6.68;4.68;;;8.50;99.90;;;;;;5036733;28;20495;-30
2022/12/28 10:30:25;;;;;;;7.55;5.43;;;8.30;99.90;;;;;;5037358;28;20088;-29
2022/12/28 10:32:56;;;;;;;7.20;5.45;;;8.40;99.90;;;;;;5038055;28;20046;-29
2022/12/28 10:35:27;;;;;;;7.72;5.30;;;8.50;99.90;;;;;;5020269;28;20041;-29
2022/12/28 10:38:07;;;;;;;7.80;5.80;;;8.30;99.90;;;;;;5037313;28;20499;-29
2022/12/28 10:40:37;;;;;;;11.13;7.30;;;8.50;99.90;;;;;;5019704;28;20079;-29
2022/12/28 10:43:03;;;;;;;10.85;8.23;;;8.50;99.90;;;;;;5037742;28;20084;-29
2022/12/28 10:45:33;;;;;;;9.18;6.40;;;8.30;99.90;;;;;;5019694;28;20041;-30
2022/12/28 10:48:00;;;;;;;14.57;10.23;;;8.20;99.90;;;;;;5019731;28;20053;-30
2022/12/28 10:50:54;;;;;;;16.85;11.75;;;8.30;99.90;;;;;;5019711;28;20046;-29
2022/12/28 10:53:19;;;;;;;19.23;12.65;;;8.30;99.90;;;;;;5003228;28;20049;-30
2022/12/28 10:55:45;;;;;;;21.55;14.70;;;8.50;99.90;;;;;;5037018;28;20500;-30
2022/12/28 10:58:24;;;;;;;23.27;15.05;;;8.40;99.90;;;;;;5020147;28;20053;-30
2022/12/28 11:01:00;;;;;;;22.17;14.10;;;8.80;99.90;;;;;;5037596;28;20437;-28
2022/12/28 11:03:28;;;;;;;26.73;16.85;;;8.50;99.90;;;;;;5036863;28;20045;-30
2022/12/28 11:06:23;;;;;;;25.60;15.63;;;8.80;99.90;;;;;;5036758;28;20049;-30
2022/12/28 11:09:15;;;;;;;30.50;17.75;;;8.90;99.90;;;;;;5033707;28;20119;-30
2022/12/28 11:11:44;;;;;;;23.35;16.25;;;8.50;99.90;;;;;;5019733;28;20049;-30
2022/12/28 11:14:30;;;;;;;20.95;16.38;;;8.70;99.90;;;;;;5037405;28;20053;-28
2022/12/28 11:17:24;;;;;;;20.58;13.27;;;8.70;99.90;;;;;;5019816;28;20131;-27
2022/12/28 11:20:09;;;;;;;14.77;11.52;;;9.00;99.90;;;;;;5019641;28;20460;-28
2022/12/28 11:22:36;;;;;;;16.55;12.70;;;8.90;99.90;;;;;;5005066;28;20131;-27
2022/12/28 11:25:05;;;;;;;17.70;13.38;;;8.80;99.90;;;;;;5036973;28;20041;-26
2022/12/28 11:27:33;;;;;;;15.27;10.70;;;8.70;99.90;;;;;;5018965;28;20057;-27
2022/12/28 11:29:58;;;;;;;15.55;11.38;;;9.00;99.90;;;;;;5036246;28;20084;-28
2022/12/28 11:32:28;;;;;;;15.43;11.05;;;9.00;99.90;;;;;;5019075;28;20088;-26
2022/12/28 11:34:56;;;;;;;13.30;8.75;;;8.90;99.90;;;;;;5018826;28;20459;-28
2022/12/28 11:37:22;;;;;;;9.55;8.15;;;8.90;99.90;;;;;;5036311;28;20049;-28
2022/12/28 11:39:50;;;;;;;13.65;9.73;;;8.90;99.90;;;;;;5018168;28;20107;-26
2022/12/28 11:42:44;;;;;;;10.48;7.65;;;8.90;99.90;;;;;;5035782;28;20519;-27
2022/12/28 11:45:15;;;;;;;12.30;9.38;;;8.60;99.90;;;;;;4992977;28;20053;-27
2022/12/28 11:47:41;;;;;;;10.32;8.52;;;8.90;99.90;;;;;;5035833;28;20106;-26
2022/12/28 11:50:41;;;;;;;11.18;7.90;;;9.00;99.90;;;;;;5036122;28;20049;-28
2022/12/28 11:53:21;;;;;;;11.50;8.35;;;8.90;99.90;;;;;;5036180;28;20065;-28
2022/12/28 11:55:53;;;;;;;11.50;7.85;;;8.60;99.90;;;;;;5035861;28;20053;-27
2022/12/28 11:58:45;;;;;;;12.75;8.40;;;8.90;99.90;;;;;;5035671;28;20045;-27
2022/12/28 12:01:33;;;;;;;12.05;8.75;;;8.80;99.90;;;;;;5018288;28;20060;-27
2022/12/28 12:03:59;;;;;;;11.07;6.43;;;8.60;99.90;;;;;;5035279;28;20487;-27
2022/12/28 12:06:43;;;;;;;9.23;7.22;;;8.60;99.90;;;;;;5018181;28;20049;-27
2022/12/28 12:09:24;;;;;;;8.38;6.95;;;8.70;99.90;;;;;;5017973;28;20081;-27
2022/12/28 12:11:58;;;;;;;10.85;8.45;;;8.80;99.90;;;;;;5035456;28;20052;-29
2022/12/28 12:14:31;;;;;;;10.30;7.82;;;8.60;99.90;;;;;;5035536;28;20055;-27
2022/12/28 12:17:06;;;;;;;10.55;7.97;;;9.00;99.90;;;;;;5035428;28;20053;-27
2022/12/28 12:19:39;;;;;;;12.52;9.05;;;8.70;99.90;;;;;;5035746;28;20046;-27
2022/12/28 12:22:17;;;;;;;9.30;8.40;;;9.00;99.90;;;;;;5035056;28;20442;-27
2022/12/28 12:25:06;;;;;;;11.20;9.82;;;8.70;99.90;;;;;;5035329;28;20057;-27
2022/12/28 12:27:43;;;;;;;8.73;7.70;;;8.70;99.90;;;;;;5035826;28;20041;-27
2022/12/28 12:30:21;;;;;;;11.80;9.85;;;8.70;99.90;;;;;;5018464;28;20081;-27
2022/12/28 12:32:55;;;;;;;12.48;10.25;;;8.60;99.90;;;;;;5035157;28;20048;-27
2022/12/28 12:35:24;;;;;;;;;;;8.90;99.90;;;;;;5035790;28;20095;-27
2022/12/28 12:38:11;;;;;;;11.48;9.13;;;8.60;99.90;;;;;;5035112;28;19964;-27
2022/12/28 12:40:55;;;;;;;11.38;9.27;;;8.50;99.90;;;;;;5017316;28;20045;-28
2022/12/28 12:43:45;;;;;;;13.32;8.95;;;8.60;99.90;;;;;;5035250;28;20088;-27
2022/12/28 12:46:32;;;;;;;10.18;8.52;;;8.70;99.90;;;;;;5017768;28;20400;-28
2022/12/28 12:49:15;;;;;;;11.98;8.77;;;8.60;99.90;;;;;;5016740;28;20053;-27
2022/12/28 12:51:59;;;;;;;10.13;9.13;;;8.70;99.90;;;;;;5017660;28;20042;-29
2022/12/28 12:54:51;;;;;;;10.60;8.80;;;8.80;99.90;;;;;;5034775;28;20132;-27
2022/12/28 12:57:40;;;;;;;10.85;8.25;;;8.90;99.90;;;;;;5035457;28;20049;-28
2022/12/28 13:00:23;;;;;;;10.52;7.25;;;8.70;99.90;;;;;;4975887;28;20057;-28
2022/12/28 13:03:08;;;;;;;7.18;6.18;;;8.70;99.90;;;;;;5033889;28;20050;-27
2022/12/28 13:05:38;;;;;;;6.05;5.30;;;8.70;99.90;;;;;;5034983;28;20049;-27
2022/12/28 13:08:04;;;;;;;7.85;5.65;;;8.60;99.90;;;;;;5034429;28;20045;-27
2022/12/28 13:10:39;;;;;;;9.70;6.00;;;8.90;99.90;;;;;;5016875;28;20046;-26
2022/12/28 13:13:05;;;;;;;6.72;5.72;;;8.70;99.90;;;;;;5034469;28;20128;-27
2022/12/28 13:15:32;;;;;;;6.97;6.00;;;8.60;99.90;;;;;;5017234;28;20049;-27
2022/12/28 13:18:16;;;;;;;6.43;5.80;;;8.70;99.90;;;;;;5016916;28;20042;-27
2022/12/28 13:20:55;;;;;;;7.60;5.97;;;8.60;99.90;;;;;;5034611;28;20388;-26
2022/12/28 13:23:24;;;;;;;8.27;6.18;;;8.80;99.90;;;;;;5034231;28;20048;-26
2022/12/28 13:25:56;;;;;;;8.07;6.25;;;8.70;99.90;;;;;;5032941;28;20132;-27